Atwood, Alabama
Current Conditions -  °F | °C
As of 9:56 PM on Wednesday 26 Nov 2014 (Local Time) from K1M4 Reporting Station
Broken Clouds Broken Clouds  
Wind Chill: 37°   Ceiling: 6000
Heat Index: 42°   Visibility: 10mi
Dew Point: 32°   Wind: 8mph
Humidity: 68%   Direction: 330°NNW
Pressure: 30.17"   Gusts: NA
Location:  34.3479°N, 87.9692°W
Report Text: K1M4 270356Z AUTO 33007KT 10SM BKN060 06/00 A3017 RMK AO2 T00550000 SLP225
Loading
Personal Weather Stations






























Interactive Weather Map New forecast layout! Learn more

10-Day Weather Forecast

Advertisements
Track Severe Weather on mobile